• Join FlightAware (Why Join?)
  • Login
  • US Flag 
05:39AM EDT


 

Airport Tracker/Info


-or-


 

Live Flight TrackerFlight Track Log ✈ VH-OWA ✈ 04-Oct-2013 ✈ YNUL - YPPD / PHE

Flight Track Log - Related Links

Times and Time Zones

All times are in EDT time to prevent confusion due to time zone crossing. See the VH-OWA flight status page for this flight to view local times or setup timezone preferences in your user account.

Time Position Orientation Groundspeed Altitude Reporting Facility
EDT Latitude Longitude Course Direction KTS MPH feet Rate Location/Type
05:02PM -21.8649 120.1489 316° Northwest  Level Aus ATC (Calculated)
05:02PM -21.8187 120.1009 316° Northwest  Level Aus ATC (Calculated)
05:04PM -21.7743 120.0549 316° Northwest  Level FlightAware Approximate
05:05PM -21.7379 120.0171 316° Northwest  Level FlightAware Approximate
05:05PM -21.6842 119.9614 136° Southeast  Level Aus ATC (Calculated)
05:06PM -21.7014 119.9793 316° Northwest  Level FlightAware Approximate
05:06PM -21.6435 119.9194 316° Northwest  Level Aus ATC (Calculated)
05:07PM -21.6041 119.8786 360° North  Level Aus ATC (Calculated)
05:07PM -21.6041 119.8786 316° Northwest  Level Aus ATC (Calculated)
05:09PM -21.5439 119.8165 316° Northwest  Level FlightAware Approximate
05:10PM -21.5074 119.7788 316° Northwest  Level FlightAware Approximate
05:11PM -21.4709 119.7411 316° Northwest  Level FlightAware Approximate
05:12PM -21.4344 119.7035 316° Northwest  Level FlightAware Approximate
05:13PM -21.3978 119.6659 316° Northwest  Level FlightAware Approximate
05:14PM -21.3613 119.6283 316° Northwest  Level FlightAware Approximate
05:15PM -21.3247 119.5907 316° Northwest  Level FlightAware Approximate
05:16PM -21.2882 119.5532 316° Northwest  Level FlightAware Approximate
05:17PM -21.2516 119.5156 316° Northwest  Level FlightAware Approximate
05:18PM -21.2150 119.4781 316° Northwest  Level FlightAware Approximate
05:19PM -21.1785 119.4406 316° Northwest  Level FlightAware Approximate
05:19PM -21.0305 119.2892 136° Southeast  Level Aus ATC (Calculated)
05:20PM -21.1419 119.4031 316° Northwest  Level FlightAware Approximate
05:21PM -20.9719 119.2293 316° Northwest  Level FlightAware Approximate
05:21PM -20.9083 119.1645 316° Northwest  Level Aus ATC (Calculated)
05:23PM -20.8594 119.1147 316° Northwest  Level FlightAware Approximate
05:24PM -20.8228 119.0774 316° Northwest  Level FlightAware Approximate
05:25PM -20.7861 119.0401 316° Northwest  Level FlightAware Approximate
05:26PM -20.7494 119.0028 316° Northwest  Level FlightAware Approximate
05:27PM -20.7127 118.9655 316° Northwest  Level FlightAware Approximate
05:28PM -20.6761 118.9283 316° Northwest  Level FlightAware Approximate
05:28PM -20.5770 118.8278 137° Southeast  Level Aus ATC (Calculated)
05:29PM -20.6394 118.8910 316° Northwest  Level FlightAware Approximate
05:30PM -20.5145 118.7646 317° Northwest  Level FlightAware Approximate
05:31PM -20.4778 118.7274 317° Northwest  Level FlightAware Approximate
05:32PM -20.4410 118.6903 317° Northwest  Level FlightAware Approximate
05:33PM -20.4043 118.6532 317° Northwest  Level FlightAware Approximate
05:34PM -20.3778 118.6264 317° Northwest  Level Estimated
05:35PM -20.3778 118.6264 126° Southeast  Level Estimated
05:36PM -20.3778 118.6264 126° Southeast  Level Estimated
05:37PM -20.3778 118.6264 126° Southeast  Level Estimated
05:38PM -20.3778 118.6264 126° Southeast  Level Estimated
05:39PM -20.3778 118.6264 126° Southeast  Level Estimated
05:40PM -20.3778 118.6264 126° Southeast  Level Estimated
05:41PM -20.3778 118.6264 316° Northwest  Level Estimated
05:42PM -20.3778 118.6264 316° Northwest  Level Estimated
05:43PM -20.3778 118.6264 316° Northwest  Level Estimated
05:44PM -20.3778 118.6264 316° Northwest  Level Estimated
05:45PM -20.3778 118.6264 316° Northwest  Level Estimated
05:46PM -20.3778 118.6264 316° Northwest  Level Estimated
05:47PM -20.3778 118.6264 316° Northwest  Level Estimated
05:48PM -20.3778 118.6264 316° Northwest  Level Estimated
05:49PM -20.3778 118.6264 316° Northwest  Level Estimated
05:50PM -20.3778 118.6264 316° Northwest  Level Estimated
05:51PM -20.3778 118.6264 316° Northwest  Level Estimated
05:52PM -20.3778 118.6264 316° Northwest  Level Estimated
05:53PM -20.3778 118.6264 316° Northwest  Level Estimated
05:54PM -20.3778 118.6264 316° Northwest  Level Estimated
05:55PM -20.3778 118.6264 316° Northwest  Level Estimated
05:56PM -20.3778 118.6264 316° Northwest  Level Estimated
05:57PM -20.3778 118.6264 316° Northwest  Level Estimated
05:58PM -20.3778 118.6264 316° Northwest  Level Estimated
05:59PM -20.3778 118.6264 316° Northwest  Level Estimated